sensor_id;sensor_type;location;lat;lon;timestamp;P1;durP1;ratioP1;P2;durP2;ratioP2
74269;SDS011;62754;48.252;11.654;2023-04-25T00:02:21;2.97;;;1.70;;
74269;SDS011;62754;48.252;11.654;2023-04-25T00:04:47;3.50;;;1.60;;
74269;SDS011;62754;48.252;11.654;2023-04-25T00:07:13;3.22;;;1.50;;
74269;SDS011;62754;48.252;11.654;2023-04-25T00:09:38;4.18;;;1.77;;
74269;SDS011;62754;48.252;11.654;2023-04-25T00:12:04;2.42;;;1.58;;
74269;SDS011;62754;48.252;11.654;2023-04-25T00:14:33;3.75;;;1.65;;
74269;SDS011;62754;48.252;11.654;2023-04-25T00:17:02;3.30;;;1.83;;
74269;SDS011;62754;48.252;11.654;2023-04-25T00:19:37;3.85;;;1.60;;
74269;SDS011;62754;48.252;11.654;2023-04-25T00:22:03;3.95;;;1.90;;
74269;SDS011;62754;48.252;11.654;2023-04-25T00:24:31;2.35;;;1.35;;
74269;SDS011;62754;48.252;11.654;2023-04-25T00:26:57;2.85;;;1.40;;
74269;SDS011;62754;48.252;11.654;2023-04-25T00:29:22;3.80;;;1.50;;
74269;SDS011;62754;48.252;11.654;2023-04-25T00:31:50;3.47;;;1.60;;
74269;SDS011;62754;48.252;11.654;2023-04-25T00:34:16;3.75;;;1.80;;
74269;SDS011;62754;48.252;11.654;2023-04-25T00:36:44;3.47;;;1.52;;
74269;SDS011;62754;48.252;11.654;2023-04-25T00:39:12;3.92;;;1.60;;
74269;SDS011;62754;48.252;11.654;2023-04-25T00:41:41;3.83;;;1.65;;
74269;SDS011;62754;48.252;11.654;2023-04-25T00:44:12;2.70;;;1.60;;
74269;SDS011;62754;48.252;11.654;2023-04-25T00:46:40;3.75;;;1.52;;
74269;SDS011;62754;48.252;11.654;2023-04-25T00:49:09;3.25;;;1.50;;
74269;SDS011;62754;48.252;11.654;2023-04-25T00:51:40;3.53;;;1.73;;
74269;SDS011;62754;48.252;11.654;2023-04-25T00:54:06;3.03;;;1.52;;
74269;SDS011;62754;48.252;11.654;2023-04-25T00:56:32;3.33;;;1.80;;
74269;SDS011;62754;48.252;11.654;2023-04-25T00:58:58;4.43;;;1.60;;
74269;SDS011;62754;48.252;11.654;2023-04-25T01:01:24;4.47;;;1.83;;
74269;SDS011;62754;48.252;11.654;2023-04-25T01:03:52;3.60;;;1.60;;
74269;SDS011;62754;48.252;11.654;2023-04-25T01:06:21;4.07;;;1.80;;
74269;SDS011;62754;48.252;11.654;2023-04-25T01:08:47;2.90;;;1.77;;
74269;SDS011;62754;48.252;11.654;2023-04-25T01:11:12;2.90;;;1.67;;
74269;SDS011;62754;48.252;11.654;2023-04-25T01:13:38;3.08;;;1.85;;
74269;SDS011;62754;48.252;11.654;2023-04-25T01:16:06;3.63;;;1.88;;
74269;SDS011;62754;48.252;11.654;2023-04-25T01:18:32;3.03;;;1.63;;
74269;SDS011;62754;48.252;11.654;2023-04-25T01:21:10;4.28;;;2.10;;
74269;SDS011;62754;48.252;11.654;2023-04-25T01:23:40;4.10;;;1.60;;
74269;SDS011;62754;48.252;11.654;2023-04-25T01:26:09;5.18;;;1.67;;
74269;SDS011;62754;48.252;11.654;2023-04-25T01:28:36;4.65;;;1.77;;
74269;SDS011;62754;48.252;11.654;2023-04-25T01:31:03;3.20;;;1.88;;
74269;SDS011;62754;48.252;11.654;2023-04-25T01:33:31;5.20;;;1.95;;
74269;SDS011;62754;48.252;11.654;2023-04-25T01:36:02;3.75;;;1.67;;
74269;SDS011;62754;48.252;11.654;2023-04-25T01:38:28;3.08;;;1.70;;
74269;SDS011;62754;48.252;11.654;2023-04-25T01:40:56;3.63;;;1.73;;
74269;SDS011;62754;48.252;11.654;2023-04-25T01:43:24;3.38;;;1.52;;
74269;SDS011;62754;48.252;11.654;2023-04-25T01:45:52;2.70;;;1.60;;
74269;SDS011;62754;48.252;11.654;2023-04-25T01:48:18;2.72;;;1.50;;
74269;SDS011;62754;48.252;11.654;2023-04-25T01:50:44;3.95;;;1.90;;
74269;SDS011;62754;48.252;11.654;2023-04-25T01:53:12;3.92;;;1.58;;
74269;SDS011;62754;48.252;11.654;2023-04-25T01:55:41;5.70;;;2.83;;
74269;SDS011;62754;48.252;11.654;2023-04-25T01:58:07;5.43;;;1.88;;
74269;SDS011;62754;48.252;11.654;2023-04-25T02:00:33;3.85;;;1.83;;
74269;SDS011;62754;48.252;11.654;2023-04-25T02:03:04;4.95;;;1.65;;
74269;SDS011;62754;48.252;11.654;2023-04-25T02:05:36;3.20;;;1.90;;
74269;SDS011;62754;48.252;11.654;2023-04-25T02:08:05;3.67;;;1.80;;
74269;SDS011;62754;48.252;11.654;2023-04-25T02:10:33;2.92;;;1.73;;
74269;SDS011;62754;48.252;11.654;2023-04-25T02:13:01;3.10;;;1.90;;
74269;SDS011;62754;48.252;11.654;2023-04-25T02:15:30;3.58;;;1.80;;
74269;SDS011;62754;48.252;11.654;2023-04-25T02:18:00;3.58;;;1.60;;
74269;SDS011;62754;48.252;11.654;2023-04-25T02:20:29;3.90;;;1.75;;
74269;SDS011;62754;48.252;11.654;2023-04-25T02:22:57;3.28;;;1.80;;
74269;SDS011;62754;48.252;11.654;2023-04-25T02:25:23;3.75;;;1.90;;
74269;SDS011;62754;48.252;11.654;2023-04-25T02:27:49;3.38;;;1.67;;
74269;SDS011;62754;48.252;11.654;2023-04-25T02:30:17;3.78;;;1.70;;
74269;SDS011;62754;48.252;11.654;2023-04-25T02:32:45;3.20;;;1.60;;
74269;SDS011;62754;48.252;11.654;2023-04-25T02:35:11;4.35;;;1.70;;
74269;SDS011;62754;48.252;11.654;2023-04-25T02:37:37;2.63;;;1.42;;
74269;SDS011;62754;48.252;11.654;2023-04-25T02:40:05;3.55;;;1.83;;
74269;SDS011;62754;48.252;11.654;2023-04-25T02:42:32;2.58;;;1.40;;
74269;SDS011;62754;48.252;11.654;2023-04-25T02:45:02;4.35;;;1.42;;
74269;SDS011;62754;48.252;11.654;2023-04-25T02:47:28;4.30;;;1.88;;
74269;SDS011;62754;48.252;11.654;2023-04-25T02:49:54;3.67;;;1.83;;
74269;SDS011;62754;48.252;11.654;2023-04-25T02:52:20;2.80;;;1.58;;
74269;SDS011;62754;48.252;11.654;2023-04-25T02:54:46;3.60;;;1.63;;
74269;SDS011;62754;48.252;11.654;2023-04-25T02:57:14;2.97;;;1.70;;
74269;SDS011;62754;48.252;11.654;2023-04-25T02:59:39;4.30;;;2.17;;
74269;SDS011;62754;48.252;11.654;2023-04-25T03:02:05;3.03;;;1.45;;
74269;SDS011;62754;48.252;11.654;2023-04-25T03:04:33;3.42;;;1.40;;
74269;SDS011;62754;48.252;11.654;2023-04-25T03:07:01;3.75;;;1.75;;
74269;SDS011;62754;48.252;11.654;2023-04-25T03:09:32;4.75;;;1.52;;
74269;SDS011;62754;48.252;11.654;2023-04-25T03:12:00;3.28;;;1.40;;
74269;SDS011;62754;48.252;11.654;2023-04-25T03:14:28;5.32;;;2.08;;
74269;SDS011;62754;48.252;11.654;2023-04-25T03:16:58;3.83;;;1.67;;
74269;SDS011;62754;48.252;11.654;2023-04-25T03:19:23;5.80;;;1.85;;
74269;SDS011;62754;48.252;11.654;2023-04-25T03:21:49;4.85;;;1.63;;
74269;SDS011;62754;48.252;11.654;2023-04-25T03:24:15;3.63;;;1.75;;
74269;SDS011;62754;48.252;11.654;2023-04-25T03:26:45;3.33;;;1.40;;
74269;SDS011;62754;48.252;11.654;2023-04-25T03:29:15;3.53;;;1.90;;
74269;SDS011;62754;48.252;11.654;2023-04-25T03:31:43;3.83;;;1.80;;
74269;SDS011;62754;48.252;11.654;2023-04-25T03:34:09;5.07;;;1.63;;
74269;SDS011;62754;48.252;11.654;2023-04-25T03:36:37;2.92;;;1.80;;
74269;SDS011;62754;48.252;11.654;2023-04-25T03:39:05;4.72;;;1.80;;
74269;SDS011;62754;48.252;11.654;2023-04-25T03:41:31;4.28;;;1.85;;
74269;SDS011;62754;48.252;11.654;2023-04-25T03:43:57;5.60;;;1.80;;
74269;SDS011;62754;48.252;11.654;2023-04-25T03:46:25;4.97;;;1.88;;
74269;SDS011;62754;48.252;11.654;2023-04-25T03:48:56;3.72;;;2.10;;
74269;SDS011;62754;48.252;11.654;2023-04-25T03:51:22;4.00;;;2.00;;
74269;SDS011;62754;48.252;11.654;2023-04-25T03:53:49;4.65;;;1.80;;
74269;SDS011;62754;48.252;11.654;2023-04-25T03:56:18;3.17;;;1.65;;
74269;SDS011;62754;48.252;11.654;2023-04-25T03:58:44;4.85;;;1.80;;
74269;SDS011;62754;48.252;11.654;2023-04-25T04:01:10;3.08;;;1.75;;
74269;SDS011;62754;48.252;11.654;2023-04-25T04:03:36;4.72;;;1.77;;
74269;SDS011;62754;48.252;11.654;2023-04-25T04:06:04;3.45;;;1.70;;
74269;SDS011;62754;48.252;11.654;2023-04-25T04:08:31;2.78;;;1.67;;
74269;SDS011;62754;48.252;11.654;2023-04-25T04:10:59;3.60;;;1.52;;
74269;SDS011;62754;48.252;11.654;2023-04-25T04:13:25;3.50;;;1.70;;
74269;SDS011;62754;48.252;11.654;2023-04-25T04:18:20;5.32;;;1.80;;
74269;SDS011;62754;48.252;11.654;2023-04-25T04:20:45;5.43;;;2.20;;
74269;SDS011;62754;48.252;11.654;2023-04-25T04:23:11;3.83;;;1.63;;
74269;SDS011;62754;48.252;11.654;2023-04-25T04:25:42;3.35;;;1.70;;
74269;SDS011;62754;48.252;11.654;2023-04-25T04:28:08;2.95;;;1.35;;
74269;SDS011;62754;48.252;11.654;2023-04-25T04:30:36;5.35;;;1.60;;
74269;SDS011;62754;48.252;11.654;2023-04-25T04:33:04;3.67;;;1.52;;
74269;SDS011;62754;48.252;11.654;2023-04-25T04:35:35;3.10;;;1.60;;
74269;SDS011;62754;48.252;11.654;2023-04-25T04:38:01;2.97;;;1.50;;
74269;SDS011;62754;48.252;11.654;2023-04-25T04:40:31;2.78;;;1.20;;
74269;SDS011;62754;48.252;11.654;2023-04-25T04:42:59;3.17;;;1.40;;
74269;SDS011;62754;48.252;11.654;2023-04-25T04:45:25;3.08;;;1.20;;
74269;SDS011;62754;48.252;11.654;2023-04-25T04:47:51;2.45;;;1.15;;
74269;SDS011;62754;48.252;11.654;2023-04-25T04:50:16;2.63;;;1.02;;
74269;SDS011;62754;48.252;11.654;2023-04-25T04:52:44;4.13;;;1.08;;
74269;SDS011;62754;48.252;11.654;2023-04-25T04:55:13;3.63;;;1.15;;
74269;SDS011;62754;48.252;11.654;2023-04-25T04:57:38;2.78;;;1.25;;
74269;SDS011;62754;48.252;11.654;2023-04-25T05:00:07;2.53;;;1.20;;
74269;SDS011;62754;48.252;11.654;2023-04-25T05:02:33;3.15;;;1.17;;
74269;SDS011;62754;48.252;11.654;2023-04-25T05:04:58;2.50;;;1.20;;
74269;SDS011;62754;48.252;11.654;2023-04-25T05:07:24;2.97;;;1.25;;
74269;SDS011;62754;48.252;11.654;2023-04-25T05:09:50;4.40;;;1.48;;
74269;SDS011;62754;48.252;11.654;2023-04-25T05:12:16;4.32;;;1.33;;
74269;SDS011;62754;48.252;11.654;2023-04-25T05:14:43;2.38;;;1.40;;
74269;SDS011;62754;48.252;11.654;2023-04-25T05:17:09;3.05;;;1.20;;
74269;SDS011;62754;48.252;11.654;2023-04-25T05:19:35;4.00;;;1.25;;
74269;SDS011;62754;48.252;11.654;2023-04-25T05:22:03;3.25;;;1.20;;
74269;SDS011;62754;48.252;11.654;2023-04-25T05:24:29;4.13;;;1.70;;
74269;SDS011;62754;48.252;11.654;2023-04-25T05:26:55;2.78;;;1.60;;
74269;SDS011;62754;48.252;11.654;2023-04-25T05:29:20;3.92;;;1.40;;
74269;SDS011;62754;48.252;11.654;2023-04-25T05:31:46;4.45;;;1.58;;
74269;SDS011;62754;48.252;11.654;2023-04-25T05:34:14;3.78;;;1.45;;
74269;SDS011;62754;48.252;11.654;2023-04-25T05:36:42;4.13;;;1.88;;
74269;SDS011;62754;48.252;11.654;2023-04-25T05:39:13;5.15;;;1.48;;
74269;SDS011;62754;48.252;11.654;2023-04-25T05:41:41;3.50;;;1.40;;
74269;SDS011;62754;48.252;11.654;2023-04-25T05:44:07;4.22;;;1.58;;
74269;SDS011;62754;48.252;11.654;2023-04-25T05:46:35;5.47;;;1.83;;
74269;SDS011;62754;48.252;11.654;2023-04-25T05:49:03;3.20;;;1.50;;
74269;SDS011;62754;48.252;11.654;2023-04-25T05:51:29;3.40;;;1.60;;
74269;SDS011;62754;48.252;11.654;2023-04-25T05:53:57;2.40;;;1.48;;
74269;SDS011;62754;48.252;11.654;2023-04-25T05:56:25;3.08;;;1.50;;
74269;SDS011;62754;48.252;11.654;2023-04-25T05:58:51;3.63;;;1.40;;
74269;SDS011;62754;48.252;11.654;2023-04-25T06:01:21;4.25;;;1.80;;
74269;SDS011;62754;48.252;11.654;2023-04-25T06:03:50;3.38;;;1.73;;
74269;SDS011;62754;48.252;11.654;2023-04-25T06:06:16;4.47;;;1.70;;
74269;SDS011;62754;48.252;11.654;2023-04-25T06:08:41;3.28;;;1.58;;
74269;SDS011;62754;48.252;11.654;2023-04-25T06:11:09;3.70;;;1.83;;
74269;SDS011;62754;48.252;11.654;2023-04-25T06:13:35;3.00;;;1.70;;
74269;SDS011;62754;48.252;11.654;2023-04-25T06:16:03;5.82;;;2.78;;
74269;SDS011;62754;48.252;11.654;2023-04-25T06:18:32;4.82;;;2.38;;
74269;SDS011;62754;48.252;11.654;2023-04-25T06:20:58;4.45;;;1.70;;
74269;SDS011;62754;48.252;11.654;2023-04-25T06:23:23;4.25;;;1.98;;
74269;SDS011;62754;48.252;11.654;2023-04-25T06:25:49;3.90;;;1.88;;
74269;SDS011;62754;48.252;11.654;2023-04-25T06:28:17;4.65;;;2.00;;
74269;SDS011;62754;48.252;11.654;2023-04-25T06:30:43;4.75;;;2.25;;
74269;SDS011;62754;48.252;11.654;2023-04-25T06:33:08;4.68;;;1.83;;
74269;SDS011;62754;48.252;11.654;2023-04-25T06:35:38;3.50;;;1.60;;
74269;SDS011;62754;48.252;11.654;2023-04-25T06:38:09;2.95;;;1.60;;
74269;SDS011;62754;48.252;11.654;2023-04-25T06:40:35;5.20;;;1.98;;
74269;SDS011;62754;48.252;11.654;2023-04-25T06:43:03;4.20;;;2.05;;
74269;SDS011;62754;48.252;11.654;2023-04-25T06:45:29;3.78;;;1.60;;
74269;SDS011;62754;48.252;11.654;2023-04-25T06:47:54;4.25;;;1.60;;
74269;SDS011;62754;48.252;11.654;2023-04-25T06:50:22;5.63;;;1.85;;
74269;SDS011;62754;48.252;11.654;2023-04-25T06:52:50;4.63;;;1.95;;
74269;SDS011;62754;48.252;11.654;2023-04-25T06:55:18;4.70;;;2.20;;
74269;SDS011;62754;48.252;11.654;2023-04-25T06:57:44;5.70;;;1.92;;
74269;SDS011;62754;48.252;11.654;2023-04-25T07:00:12;4.47;;;1.80;;
74269;SDS011;62754;48.252;11.654;2023-04-25T07:02:43;6.63;;;2.60;;
74269;SDS011;62754;48.252;11.654;2023-04-25T07:05:09;5.15;;;2.10;;
74269;SDS011;62754;48.252;11.654;2023-04-25T07:07:35;4.40;;;2.20;;
74269;SDS011;62754;48.252;11.654;2023-04-25T07:10:00;5.82;;;2.08;;
74269;SDS011;62754;48.252;11.654;2023-04-25T07:12:26;4.28;;;2.25;;
74269;SDS011;62754;48.252;11.654;2023-04-25T07:14:52;6.32;;;2.25;;
74269;SDS011;62754;48.252;11.654;2023-04-25T07:17:20;5.70;;;2.13;;
74269;SDS011;62754;48.252;11.654;2023-04-25T07:19:50;4.15;;;2.20;;
74269;SDS011;62754;48.252;11.654;2023-04-25T07:22:16;5.57;;;2.25;;
74269;SDS011;62754;48.252;11.654;2023-04-25T07:24:44;3.95;;;2.13;;
74269;SDS011;62754;48.252;11.654;2023-04-25T07:27:12;4.93;;;2.55;;
74269;SDS011;62754;48.252;11.654;2023-04-25T07:29:38;5.53;;;2.22;;
74269;SDS011;62754;48.252;11.654;2023-04-25T07:32:03;4.90;;;2.10;;
74269;SDS011;62754;48.252;11.654;2023-04-25T07:34:31;6.13;;;2.13;;
74269;SDS011;62754;48.252;11.654;2023-04-25T07:36:57;4.05;;;1.77;;
74269;SDS011;62754;48.252;11.654;2023-04-25T07:39:26;4.38;;;1.77;;
74269;SDS011;62754;48.252;11.654;2023-04-25T07:41:51;4.85;;;2.00;;
74269;SDS011;62754;48.252;11.654;2023-04-25T07:44:17;7.40;;;2.10;;
74269;SDS011;62754;48.252;11.654;2023-04-25T07:46:43;4.80;;;1.90;;
74269;SDS011;62754;48.252;11.654;2023-04-25T07:49:11;3.55;;;1.80;;
74269;SDS011;62754;48.252;11.654;2023-04-25T07:51:39;6.47;;;1.88;;
74269;SDS011;62754;48.252;11.654;2023-04-25T07:54:09;3.78;;;1.80;;
74269;SDS011;62754;48.252;11.654;2023-04-25T07:56:37;5.32;;;2.35;;
74269;SDS011;62754;48.252;11.654;2023-04-25T07:59:03;3.90;;;1.67;;
74269;SDS011;62754;48.252;11.654;2023-04-25T08:01:31;3.53;;;2.00;;
74269;SDS011;62754;48.252;11.654;2023-04-25T08:03:57;5.70;;;2.08;;
74269;SDS011;62754;48.252;11.654;2023-04-25T08:06:22;3.15;;;1.80;;
74269;SDS011;62754;48.252;11.654;2023-04-25T08:08:53;5.00;;;1.65;;
74269;SDS011;62754;48.252;11.654;2023-04-25T08:11:23;4.90;;;2.03;;
74269;SDS011;62754;48.252;11.654;2023-04-25T08:13:49;6.13;;;1.40;;
74269;SDS011;62754;48.252;11.654;2023-04-25T08:16:17;4.07;;;1.70;;
74269;SDS011;62754;48.252;11.654;2023-04-25T08:18:45;4.75;;;1.60;;
74269;SDS011;62754;48.252;11.654;2023-04-25T08:21:11;3.05;;;1.50;;
74269;SDS011;62754;48.252;11.654;2023-04-25T08:23:38;2.42;;;1.30;;
74269;SDS011;62754;48.252;11.654;2023-04-25T08:26:06;3.03;;;1.70;;
74269;SDS011;62754;48.252;11.654;2023-04-25T08:28:32;3.05;;;1.50;;
74269;SDS011;62754;48.252;11.654;2023-04-25T08:30:58;3.22;;;1.60;;
74269;SDS011;62754;48.252;11.654;2023-04-25T08:33:28;6.10;;;1.75;;
74269;SDS011;62754;48.252;11.654;2023-04-25T08:35:57;3.55;;;1.85;;
74269;SDS011;62754;48.252;11.654;2023-04-25T08:38:27;3.58;;;1.60;;
74269;SDS011;62754;48.252;11.654;2023-04-25T08:40:53;3.00;;;1.38;;
74269;SDS011;62754;48.252;11.654;2023-04-25T08:43:22;2.30;;;1.33;;
74269;SDS011;62754;48.252;11.654;2023-04-25T08:45:48;4.70;;;1.80;;
74269;SDS011;62754;48.252;11.654;2023-04-25T08:48:15;4.05;;;1.88;;
74269;SDS011;62754;48.252;11.654;2023-04-25T08:50:48;3.50;;;1.77;;
74269;SDS011;62754;48.252;11.654;2023-04-25T08:53:19;2.65;;;1.40;;
74269;SDS011;62754;48.252;11.654;2023-04-25T08:56:00;4.43;;;2.42;;
74269;SDS011;62754;48.252;11.654;2023-04-25T08:58:31;4.10;;;1.38;;
74269;SDS011;62754;48.252;11.654;2023-04-25T09:00:59;4.55;;;1.60;;
74269;SDS011;62754;48.252;11.654;2023-04-25T09:03:27;3.38;;;1.30;;
74269;SDS011;62754;48.252;11.654;2023-04-25T09:05:53;5.72;;;1.85;;
74269;SDS011;62754;48.252;11.654;2023-04-25T09:08:23;3.05;;;1.58;;
74269;SDS011;62754;48.252;11.654;2023-04-25T09:10:52;2.28;;;1.15;;
74269;SDS011;62754;48.252;11.654;2023-04-25T09:13:26;2.83;;;1.02;;
74269;SDS011;62754;48.252;11.654;2023-04-25T09:15:55;3.47;;;1.10;;
74269;SDS011;62754;48.252;11.654;2023-04-25T09:18:27;3.55;;;1.25;;
74269;SDS011;62754;48.252;11.654;2023-04-25T09:20:55;3.45;;;1.30;;
74269;SDS011;62754;48.252;11.654;2023-04-25T09:23:24;3.80;;;0.98;;
74269;SDS011;62754;48.252;11.654;2023-04-25T09:25:52;2.35;;;1.10;;
74269;SDS011;62754;48.252;11.654;2023-04-25T09:28:27;4.22;;;1.30;;
74269;SDS011;62754;48.252;11.654;2023-04-25T09:31:00;2.72;;;1.35;;
74269;SDS011;62754;48.252;11.654;2023-04-25T09:33:27;2.38;;;0.90;;
74269;SDS011;62754;48.252;11.654;2023-04-25T09:38:40;3.40;;;1.10;;
74269;SDS011;62754;48.252;11.654;2023-04-25T09:41:12;3.05;;;1.10;;
74269;SDS011;62754;48.252;11.654;2023-04-25T09:43:38;4.25;;;1.05;;
74269;SDS011;62754;48.252;11.654;2023-04-25T09:46:10;3.50;;;1.20;;
74269;SDS011;62754;48.252;11.654;2023-04-25T09:51:18;3.97;;;1.33;;
74269;SDS011;62754;48.252;11.654;2023-04-25T09:53:44;4.18;;;1.00;;
74269;SDS011;62754;48.252;11.654;2023-04-25T09:56:12;2.30;;;1.00;;
74269;SDS011;62754;48.252;11.654;2023-04-25T09:58:39;2.33;;;0.95;;
74269;SDS011;62754;48.252;11.654;2023-04-25T10:01:08;2.15;;;0.95;;
74269;SDS011;62754;48.252;11.654;2023-04-25T10:03:39;1.95;;;0.90;;
74269;SDS011;62754;48.252;11.654;2023-04-25T10:06:12;2.55;;;1.00;;
74269;SDS011;62754;48.252;11.654;2023-04-25T10:08:39;2.53;;;0.98;;
74269;SDS011;62754;48.252;11.654;2023-04-25T10:11:08;3.63;;;1.30;;
74269;SDS011;62754;48.252;11.654;2023-04-25T10:13:37;4.78;;;1.33;;
74269;SDS011;62754;48.252;11.654;2023-04-25T10:16:05;4.05;;;1.25;;
74269;SDS011;62754;48.252;11.654;2023-04-25T10:18:32;2.83;;;1.23;;
74269;SDS011;62754;48.252;11.654;2023-04-25T10:23:29;5.00;;;2.10;;
74269;SDS011;62754;48.252;11.654;2023-04-25T10:26:00;2.72;;;1.30;;
74269;SDS011;62754;48.252;11.654;2023-04-25T10:28:27;3.60;;;1.70;;
74269;SDS011;62754;48.252;11.654;2023-04-25T10:36:20;3.00;;;1.00;;
74269;SDS011;62754;48.252;11.654;2023-04-25T10:38:49;2.67;;;1.30;;
74269;SDS011;62754;48.252;11.654;2023-04-25T10:41:19;3.63;;;1.17;;
74269;SDS011;62754;48.252;11.654;2023-04-25T10:43:48;2.67;;;1.23;;
74269;SDS011;62754;48.252;11.654;2023-04-25T10:46:30;3.72;;;1.02;;
74269;SDS011;62754;48.252;11.654;2023-04-25T10:48:56;1.65;;;0.80;;
74269;SDS011;62754;48.252;11.654;2023-04-25T10:51:24;3.35;;;1.02;;
74269;SDS011;62754;48.252;11.654;2023-04-25T10:56:31;3.33;;;0.70;;
74269;SDS011;62754;48.252;11.654;2023-04-25T11:02:02;1.70;;;0.60;;
74269;SDS011;62754;48.252;11.654;2023-04-25T11:04:37;2.22;;;0.73;;
74269;SDS011;62754;48.252;11.654;2023-04-25T11:09:31;2.13;;;0.68;;
74269;SDS011;62754;48.252;11.654;2023-04-25T11:11:59;2.30;;;0.52;;
74269;SDS011;62754;48.252;11.654;2023-04-25T11:14:25;2.63;;;0.98;;
74269;SDS011;62754;48.252;11.654;2023-04-25T11:16:54;2.75;;;1.10;;
74269;SDS011;62754;48.252;11.654;2023-04-25T11:19:21;3.22;;;2.00;;
74269;SDS011;62754;48.252;11.654;2023-04-25T11:21:50;3.33;;;1.30;;
74269;SDS011;62754;48.252;11.654;2023-04-25T11:24:21;3.30;;;1.13;;
74269;SDS011;62754;48.252;11.654;2023-04-25T11:27:01;2.15;;;0.75;;
74269;SDS011;62754;48.252;11.654;2023-04-25T11:29:28;2.15;;;0.80;;
74269;SDS011;62754;48.252;11.654;2023-04-25T11:31:55;2.83;;;0.80;;
74269;SDS011;62754;48.252;11.654;2023-04-25T11:34:21;3.13;;;0.55;;
74269;SDS011;62754;48.252;11.654;2023-04-25T11:36:47;3.40;;;1.10;;
74269;SDS011;62754;48.252;11.654;2023-04-25T11:39:14;2.30;;;0.82;;
74269;SDS011;62754;48.252;11.654;2023-04-25T11:41:43;2.45;;;1.10;;
74269;SDS011;62754;48.252;11.654;2023-04-25T11:44:08;2.90;;;1.13;;
74269;SDS011;62754;48.252;11.654;2023-04-25T11:46:34;2.40;;;0.93;;
74269;SDS011;62754;48.252;11.654;2023-04-25T11:49:02;2.50;;;0.90;;
74269;SDS011;62754;48.252;11.654;2023-04-25T11:51:28;2.10;;;1.10;;
74269;SDS011;62754;48.252;11.654;2023-04-25T11:53:54;2.15;;;1.00;;
74269;SDS011;62754;48.252;11.654;2023-04-25T11:56:22;3.78;;;1.40;;
74269;SDS011;62754;48.252;11.654;2023-04-25T11:59:00;5.03;;;2.80;;
74269;SDS011;62754;48.252;11.654;2023-04-25T12:01:31;2.63;;;1.40;;
74269;SDS011;62754;48.252;11.654;2023-04-25T12:06:39;2.72;;;1.30;;
74269;SDS011;62754;48.252;11.654;2023-04-25T12:09:09;3.58;;;1.55;;
74269;SDS011;62754;48.252;11.654;2023-04-25T12:11:46;2.80;;;1.48;;
74269;SDS011;62754;48.252;11.654;2023-04-25T12:14:23;1.90;;;1.00;;
74269;SDS011;62754;48.252;11.654;2023-04-25T12:16:50;3.08;;;1.20;;
74269;SDS011;62754;48.252;11.654;2023-04-25T12:19:20;2.65;;;1.13;;
74269;SDS011;62754;48.252;11.654;2023-04-25T12:21:47;2.53;;;1.08;;
74269;SDS011;62754;48.252;11.654;2023-04-25T12:24:17;3.83;;;1.10;;
74269;SDS011;62754;48.252;11.654;2023-04-25T12:29:26;2.65;;;0.77;;
74269;SDS011;62754;48.252;11.654;2023-04-25T12:31:53;3.03;;;1.08;;
74269;SDS011;62754;48.252;11.654;2023-04-25T12:34:22;2.55;;;1.20;;
74269;SDS011;62754;48.252;11.654;2023-04-25T12:36:51;2.58;;;0.93;;
74269;SDS011;62754;48.252;11.654;2023-04-25T12:39:20;1.63;;;0.77;;
74269;SDS011;62754;48.252;11.654;2023-04-25T12:41:46;3.28;;;1.17;;
74269;SDS011;62754;48.252;11.654;2023-04-25T12:44:18;2.15;;;0.90;;
74269;SDS011;62754;48.252;11.654;2023-04-25T12:46:46;2.42;;;1.02;;
74269;SDS011;62754;48.252;11.654;2023-04-25T12:49:12;2.88;;;1.05;;
74269;SDS011;62754;48.252;11.654;2023-04-25T12:51:38;3.15;;;1.13;;
74269;SDS011;62754;48.252;11.654;2023-04-25T12:54:04;2.00;;;1.10;;
74269;SDS011;62754;48.252;11.654;2023-04-25T12:56:35;3.42;;;1.30;;
74269;SDS011;62754;48.252;11.654;2023-04-25T12:59:01;3.70;;;0.93;;
74269;SDS011;62754;48.252;11.654;2023-04-25T13:01:29;2.25;;;1.10;;
74269;SDS011;62754;48.252;11.654;2023-04-25T13:03:57;1.92;;;1.02;;
74269;SDS011;62754;48.252;11.654;2023-04-25T13:06:23;4.10;;;1.38;;
74269;SDS011;62754;48.252;11.654;2023-04-25T13:08:53;2.50;;;1.20;;
74269;SDS011;62754;48.252;11.654;2023-04-25T13:11:21;2.92;;;1.13;;
74269;SDS011;62754;48.252;11.654;2023-04-25T13:13:51;2.15;;;0.70;;
74269;SDS011;62754;48.252;11.654;2023-04-25T13:16:17;1.73;;;0.77;;
74269;SDS011;62754;48.252;11.654;2023-04-25T13:18:45;2.00;;;0.70;;
74269;SDS011;62754;48.252;11.654;2023-04-25T13:21:13;1.70;;;0.77;;
74269;SDS011;62754;48.252;11.654;2023-04-25T13:23:40;1.90;;;0.80;;
74269;SDS011;62754;48.252;11.654;2023-04-25T13:26:10;2.85;;;0.70;;
74269;SDS011;62754;48.252;11.654;2023-04-25T13:28:36;2.60;;;0.73;;
74269;SDS011;62754;48.252;11.654;2023-04-25T13:31:02;2.03;;;0.70;;
74269;SDS011;62754;48.252;11.654;2023-04-25T13:33:30;2.47;;;0.80;;
74269;SDS011;62754;48.252;11.654;2023-04-25T13:35:56;1.10;;;0.47;;
74269;SDS011;62754;48.252;11.654;2023-04-25T13:38:22;2.17;;;0.50;;
74269;SDS011;62754;48.252;11.654;2023-04-25T13:40:51;2.63;;;0.70;;
74269;SDS011;62754;48.252;11.654;2023-04-25T13:43:16;1.65;;;0.60;;
74269;SDS011;62754;48.252;11.654;2023-04-25T13:45:42;1.67;;;0.70;;
74269;SDS011;62754;48.252;11.654;2023-04-25T13:48:08;1.10;;;0.60;;
74269;SDS011;62754;48.252;11.654;2023-04-25T13:50:36;3.30;;;0.70;;
74269;SDS011;62754;48.252;11.654;2023-04-25T13:53:02;1.83;;;0.70;;
74269;SDS011;62754;48.252;11.654;2023-04-25T13:55:28;1.40;;;0.52;;
74269;SDS011;62754;48.252;11.654;2023-04-25T13:57:58;1.42;;;0.43;;
74269;SDS011;62754;48.252;11.654;2023-04-25T14:00:28;1.45;;;0.60;;
74269;SDS011;62754;48.252;11.654;2023-04-25T14:02:56;1.33;;;0.63;;
74269;SDS011;62754;48.252;11.654;2023-04-25T14:05:24;1.08;;;0.40;;
74269;SDS011;62754;48.252;11.654;2023-04-25T14:07:50;1.05;;;0.40;;
74269;SDS011;62754;48.252;11.654;2023-04-25T14:10:18;1.67;;;0.50;;
74269;SDS011;62754;48.252;11.654;2023-04-25T14:12:44;1.33;;;0.40;;
74269;SDS011;62754;48.252;11.654;2023-04-25T14:15:12;1.85;;;0.50;;
74269;SDS011;62754;48.252;11.654;2023-04-25T14:17:38;1.35;;;0.60;;
74269;SDS011;62754;48.252;11.654;2023-04-25T14:20:06;1.88;;;0.70;;
74269;SDS011;62754;48.252;11.654;2023-04-25T14:22:36;2.95;;;0.80;;
74269;SDS011;62754;48.252;11.654;2023-04-25T14:25:02;1.65;;;0.50;;
74269;SDS011;62754;48.252;11.654;2023-04-25T14:27:28;2.47;;;0.80;;
74269;SDS011;62754;48.252;11.654;2023-04-25T14:29:54;2.35;;;0.90;;
74269;SDS011;62754;48.252;11.654;2023-04-25T14:32:26;1.90;;;0.90;;
74269;SDS011;62754;48.252;11.654;2023-04-25T14:34:54;2.88;;;0.88;;
74269;SDS011;62754;48.252;11.654;2023-04-25T14:37:20;1.85;;;0.90;;
74269;SDS011;62754;48.252;11.654;2023-04-25T14:39:48;2.50;;;0.90;;
74269;SDS011;62754;48.252;11.654;2023-04-25T14:42:16;2.10;;;1.05;;
74269;SDS011;62754;48.252;11.654;2023-04-25T14:44:44;2.00;;;1.00;;
74269;SDS011;62754;48.252;11.654;2023-04-25T14:47:12;2.33;;;1.17;;
74269;SDS011;62754;48.252;11.654;2023-04-25T14:49:40;5.68;;;3.13;;
74269;SDS011;62754;48.252;11.654;2023-04-25T14:52:06;1.75;;;0.82;;
74269;SDS011;62754;48.252;11.654;2023-04-25T14:54:32;7.20;;;1.48;;
74269;SDS011;62754;48.252;11.654;2023-04-25T14:56:57;2.28;;;0.85;;
74269;SDS011;62754;48.252;11.654;2023-04-25T14:59:23;3.08;;;0.85;;
74269;SDS011;62754;48.252;11.654;2023-04-25T15:01:52;2.42;;;0.75;;
74269;SDS011;62754;48.252;11.654;2023-04-25T15:04:21;1.92;;;1.00;;
74269;SDS011;62754;48.252;11.654;2023-04-25T15:06:47;2.95;;;1.10;;